Time;durP1;ratioP1;P1;durP2;ratioP2;P2;SDS_P1;SDS_P2;PMS_P1;PMS_P2;Temp;Humidity;BMP_temperature;BMP_pressure;BME280_temperature;BME280_humidity;BME280_pressure;Samples;Min_cycle;Max_cycle;Signal;HPM_P1;HPM_P2
2022/02/06 00:00:15;;;;;;;5.13;2.60;;;;;;;;;;5015179;28;20116;-65
2022/02/06 00:02:45;;;;;;;5.77;2.90;;;;;;;;;;5009143;28;20270;-65
2022/02/06 00:05:11;;;;;;;6.87;2.63;;;;;;;;;;5003208;28;20203;-65
2022/02/06 00:07:36;;;;;;;7.60;2.50;;;;;;;;;;5014540;28;20334;-65
2022/02/06 00:10:02;;;;;;;5.33;2.30;;;;;;;;;;5013771;28;20179;-65
2022/02/06 00:12:27;;;;;;;5.27;2.20;;;;;;;;;;5012624;28;20037;-65
2022/02/06 00:14:53;;;;;;;6.40;2.40;;;;;;;;;;5013340;28;20088;-65
2022/02/06 00:17:18;;;;;;;5.27;2.17;;;;;;;;;;5015887;28;20038;-65
2022/02/06 00:19:43;;;;;;;5.00;2.60;;;;;;;;;;5006959;28;20099;-65
2022/02/06 00:22:12;;;;;;;9.87;3.10;;;;;;;;;;5014277;28;20053;-65
2022/02/06 00:24:48;;;;;;;5.30;2.67;;;;;;;;;;5015776;28;20486;-65
2022/02/06 00:27:27;;;;;;;11.57;2.90;;;;;;;;;;5001069;28;20026;-65
2022/02/06 00:29:58;;;;;;;7.67;2.70;;;;;;;;;;5011163;28;20041;-65
2022/02/06 00:32:34;;;;;;;7.07;2.40;;;;;;;;;;4999158;28;20030;-65
2022/02/06 00:41:08;;;;;;;4.57;2.53;;;;;;;;;;5002810;28;20025;-65
2022/02/06 00:43:27;;;;;;;6.00;2.23;;;;;;;;;;5007285;28;20026;-65
2022/02/06 00:45:53;;;;;;;5.93;2.70;;;;;;;;;;5004808;28;20083;-65
2022/02/06 00:48:22;;;;;;;5.80;2.40;;;;;;;;;;5012781;28;20022;-65
2022/02/06 00:50:52;;;;;;;5.77;2.30;;;;;;;;;;5011219;28;20177;-65
2022/02/06 00:53:18;;;;;;;4.23;1.80;;;;;;;;;;5007070;28;20487;-65
2022/02/06 00:55:46;;;;;;;5.90;2.20;;;;;;;;;;5008166;28;20014;-65
2022/02/06 00:58:11;;;;;;;5.63;2.40;;;;;;;;;;5008828;28;20322;-65
2022/02/06 01:00:36;;;;;;;4.17;1.90;;;;;;;;;;5012813;28;20049;-65
2022/02/06 01:03:02;;;;;;;3.40;1.97;;;;;;;;;;5013009;28;20350;-65
2022/02/06 01:05:27;;;;;;;3.87;1.90;;;;;;;;;;5012889;28;20075;-65
2022/02/06 01:07:54;;;;;;;5.57;2.30;;;;;;;;;;5018226;28;20506;-66
2022/02/06 01:10:19;;;;;;;4.73;2.17;;;;;;;;;;5015936;28;20026;-66
2022/02/06 01:12:52;;;;;;;4.63;2.10;;;;;;;;;;5009591;28;20474;-66
2022/02/06 01:15:22;;;;;;;4.20;2.07;;;;;;;;;;5011796;28;20026;-65
2022/02/06 01:17:54;;;;;;;5.20;2.53;;;;;;;;;;5001786;28;20042;-66
2022/02/06 01:20:58;;;;;;;;;;;;;;;;;;5014761;28;20059;-65
2022/02/06 01:26:07;;;;;;;4.13;1.87;;;;;;;;;;5003277;28;20068;-66
2022/02/06 01:28:44;;;;;;;5.90;1.90;;;;;;;;;;4995207;28;20526;-66
2022/02/06 01:31:29;;;;;;;3.07;1.67;;;;;;;;;;5005059;28;20033;-66
2022/02/06 01:33:58;;;;;;;3.97;1.80;;;;;;;;;;4999336;28;20105;-67
2022/02/06 01:36:32;;;;;;;4.83;2.23;;;;;;;;;;5011472;28;20069;-67
2022/02/06 01:39:11;;;;;;;3.53;1.77;;;;;;;;;;5013107;28;20224;-68
2022/02/06 01:41:41;;;;;;;4.37;1.67;;;;;;;;;;5009496;28;20296;-65
2022/02/06 01:44:14;;;;;;;12.77;2.40;;;;;;;;;;5014159;28;20188;-65
2022/02/06 02:14:18;;;;;;;4.20;1.57;;;;;;;;;;4937954;29;20346;-68
2022/02/06 02:43:05;;;;;;;3.20;1.60;;;;;;;;;;4951611;28;20288;-68
2022/02/06 02:48:03;;;;;;;4.60;1.60;;;;;;;;;;5020539;28;20044;-68
2022/02/06 02:50:31;;;;;;;7.63;1.90;;;;;;;;;;5018916;28;20055;-67
2022/02/06 02:53:25;;;;;;;3.73;1.57;;;;;;;;;;5017137;28;20176;-67
2022/02/06 02:56:02;;;;;;;3.30;1.30;;;;;;;;;;5016950;28;20037;-68
2022/02/06 03:03:36;;;;;;;4.77;1.73;;;;;;;;;;5016902;28;20442;-71
2022/02/06 03:06:03;;;;;;;2.60;1.37;;;;;;;;;;5015728;28;20677;-67
2022/02/06 03:08:29;;;;;;;2.50;1.37;;;;;;;;;;5010987;28;20617;-68
2022/02/06 03:10:57;;;;;;;2.57;1.33;;;;;;;;;;5015586;28;20484;-68
2022/02/06 03:13:26;;;;;;;3.77;1.47;;;;;;;;;;5014322;28;20477;-68
2022/02/06 03:16:04;;;;;;;2.77;1.40;;;;;;;;;;5012631;28;20387;-69
2022/02/06 03:18:34;;;;;;;2.90;1.37;;;;;;;;;;5015543;28;20083;-68
2022/02/06 03:21:01;;;;;;;4.10;1.40;;;;;;;;;;5010251;28;20047;-67
2022/02/06 03:23:27;;;;;;;2.13;1.20;;;;;;;;;;5015332;28;20056;-68
2022/02/06 03:25:53;;;;;;;3.97;1.20;;;;;;;;;;5014942;28;20025;-67
2022/02/06 03:28:22;;;;;;;3.93;1.50;;;;;;;;;;5015873;28;20259;-67
2022/02/06 03:30:47;;;;;;;2.37;1.00;;;;;;;;;;5018236;28;20485;-67
2022/02/06 03:33:13;;;;;;;3.10;1.70;;;;;;;;;;5003940;28;20025;-68
2022/02/06 03:35:38;;;;;;;4.23;1.60;;;;;;;;;;5015710;28;20022;-67
2022/02/06 03:38:04;;;;;;;5.27;1.83;;;;;;;;;;5012657;28;20218;-67
2022/02/06 03:40:34;;;;;;;1.87;1.00;;;;;;;;;;5014310;28;20086;-68
2022/02/06 03:43:08;;;;;;;2.50;1.27;;;;;;;;;;5011102;28;20029;-67
2022/02/06 03:45:56;;;;;;;3.73;1.60;;;;;;;;;;5015627;28;20021;-67
2022/02/06 03:48:26;;;;;;;6.63;1.67;;;;;;;;;;5013790;28;20546;-67
2022/02/06 03:50:54;;;;;;;2.33;1.40;;;;;;;;;;5013732;28;20217;-67
2022/02/06 03:53:22;;;;;;;4.97;1.50;;;;;;;;;;5010959;28;20274;-68
2022/02/06 03:55:49;;;;;;;5.63;1.30;;;;;;;;;;5012427;28;20613;-68
2022/02/06 03:58:15;;;;;;;3.40;1.50;;;;;;;;;;5012241;28;20029;-67
2022/02/06 04:00:40;;;;;;;4.03;1.50;;;;;;;;;;5011117;28;20091;-64
2022/02/06 04:03:06;;;;;;;2.97;1.30;;;;;;;;;;5005566;28;20398;-65
2022/02/06 04:05:31;;;;;;;4.17;1.67;;;;;;;;;;5005028;28;20459;-64
2022/02/06 04:07:58;;;;;;;3.60;1.30;;;;;;;;;;5015400;28;20461;-64
2022/02/06 04:10:31;;;;;;;4.43;1.40;;;;;;;;;;5009048;28;20131;-64
2022/02/06 04:12:58;;;;;;;2.93;1.37;;;;;;;;;;5009790;28;20049;-64
2022/02/06 04:15:27;;;;;;;5.20;1.60;;;;;;;;;;5005323;28;20455;-64
2022/02/06 04:18:13;;;;;;;4.03;1.80;;;;;;;;;;5008429;28;20124;-65
2022/02/06 04:20:39;;;;;;;4.17;1.57;;;;;;;;;;5012717;28;20095;-65
2022/02/06 04:23:05;;;;;;;2.53;1.20;;;;;;;;;;5012309;28;20460;-66
2022/02/06 04:25:30;;;;;;;2.73;1.33;;;;;;;;;;5011620;28;20021;-66
2022/02/06 04:27:56;;;;;;;5.90;1.83;;;;;;;;;;5006856;28;20735;-66
2022/02/06 04:30:24;;;;;;;3.07;1.43;;;;;;;;;;5007834;28;20083;-67
2022/02/06 04:32:49;;;;;;;6.83;2.10;;;;;;;;;;5018996;28;20534;-66
2022/02/06 04:35:18;;;;;;;2.77;1.23;;;;;;;;;;5017597;28;20363;-66
2022/02/06 04:40:46;;;;;;;3.00;1.30;;;;;;;;;;5012917;28;20473;-66
2022/02/06 05:15:57;;;;;;;2.00;1.07;;;;;;;;;;5003155;28;20025;-66
2022/02/06 05:27:00;;;;;;;3.03;1.20;;;;;;;;;;5010947;28;20512;-65
2022/02/06 05:34:05;;;;;;;3.13;1.37;;;;;;;;;;5012026;28;20213;-66
2022/02/06 05:36:30;;;;;;;2.17;0.93;;;;;;;;;;5012672;28;20038;-66
2022/02/06 05:38:56;;;;;;;2.40;1.10;;;;;;;;;;5013230;28;20033;-66
2022/02/06 05:41:24;;;;;;;2.00;1.10;;;;;;;;;;5010649;28;20200;-66
2022/02/06 05:43:50;;;;;;;3.17;1.53;;;;;;;;;;5009772;28;20120;-66
2022/02/06 05:46:16;;;;;;;3.40;1.33;;;;;;;;;;5016226;28;20120;-66
2022/02/06 05:48:41;;;;;;;2.53;1.10;;;;;;;;;;5019189;28;20498;-66
2022/02/06 05:51:07;;;;;;;3.40;1.40;;;;;;;;;;5016105;28;20030;-66
2022/02/06 05:53:32;;;;;;;2.67;1.30;;;;;;;;;;5010790;28;20041;-66
2022/02/06 05:55:59;;;;;;;4.57;1.53;;;;;;;;;;5015211;28;20517;-66
2022/02/06 05:58:24;;;;;;;2.70;1.00;;;;;;;;;;5018781;28;20026;-64
2022/02/06 06:00:49;;;;;;;4.43;1.53;;;;;;;;;;5020078;28;20497;-64
2022/02/06 06:03:14;;;;;;;2.60;1.30;;;;;;;;;;5018726;28;20340;-63
2022/02/06 06:05:40;;;;;;;7.27;1.40;;;;;;;;;;5017581;28;20109;-64
2022/02/06 06:08:05;;;;;;;3.43;1.77;;;;;;;;;;5013353;28;20110;-64
2022/02/06 06:10:30;;;;;;;3.30;1.30;;;;;;;;;;5017855;28;20082;-64
2022/02/06 06:12:56;;;;;;;3.90;1.27;;;;;;;;;;5008321;28;20506;-64
2022/02/06 06:15:23;;;;;;;2.43;1.27;;;;;;;;;;5013406;28;20120;-65
2022/02/06 06:17:48;;;;;;;2.37;1.20;;;;;;;;;;5017851;28;20060;-65
2022/02/06 06:20:17;;;;;;;2.50;0.90;;;;;;;;;;5013655;28;20030;-66
2022/02/06 06:22:42;;;;;;;2.87;1.17;;;;;;;;;;5011277;28;20018;-66
2022/02/06 06:25:10;;;;;;;3.53;1.40;;;;;;;;;;5012488;28;20379;-67
2022/02/06 06:27:35;;;;;;;2.33;1.20;;;;;;;;;;5014302;28;20311;-66
2022/02/06 06:30:00;;;;;;;2.93;1.43;;;;;;;;;;5006463;28;20029;-67
2022/02/06 06:32:26;;;;;;;2.07;1.10;;;;;;;;;;5014089;28;20025;-66
2022/02/06 06:34:53;;;;;;;2.27;1.20;;;;;;;;;;5019669;28;20100;-66
2022/02/06 06:37:19;;;;;;;2.07;0.93;;;;;;;;;;5016374;28;20202;-66
2022/02/06 06:39:45;;;;;;;3.90;1.43;;;;;;;;;;5017368;28;20056;-64
2022/02/06 06:42:11;;;;;;;4.17;1.17;;;;;;;;;;5013157;28;20026;-64
2022/02/06 06:44:37;;;;;;;2.00;1.03;;;;;;;;;;5012654;28;20056;-64
2022/02/06 06:47:03;;;;;;;3.23;1.37;;;;;;;;;;5024870;28;20287;-64
2022/02/06 06:49:28;;;;;;;2.57;1.20;;;;;;;;;;5010902;28;20033;-64
2022/02/06 06:51:55;;;;;;;4.77;1.50;;;;;;;;;;5012780;28;20032;-64
2022/02/06 06:54:22;;;;;;;3.80;1.37;;;;;;;;;;5005400;28;20167;-64
2022/02/06 07:02:27;;;;;;;2.95;1.13;;;;;;;;;;5012829;28;20041;-64
2022/02/06 07:04:59;;;;;;;2.50;1.33;;;;;;;;;;5019716;28;20101;-64
2022/02/06 07:07:25;;;;;;;5.23;1.40;;;;;;;;;;5015683;28;20045;-64
2022/02/06 07:09:50;;;;;;;2.87;1.10;;;;;;;;;;5015643;28;20393;-64
2022/02/06 07:12:15;;;;;;;3.37;1.50;;;;;;;;;;5015133;28;20029;-64
2022/02/06 07:14:41;;;;;;;3.50;1.60;;;;;;;;;;5015863;28;20532;-64
2022/02/06 07:17:06;;;;;;;2.40;1.13;;;;;;;;;;5014675;28;20057;-64
2022/02/06 07:19:32;;;;;;;3.30;1.33;;;;;;;;;;5015920;28;20798;-64
2022/02/06 07:21:57;;;;;;;3.30;1.30;;;;;;;;;;5012949;28;20087;-64
2022/02/06 07:24:25;;;;;;;3.50;1.40;;;;;;;;;;5015506;28;20038;-64
2022/02/06 07:26:53;;;;;;;3.33;1.50;;;;;;;;;;5016255;28;20025;-64
2022/02/06 07:29:18;;;;;;;2.87;1.50;;;;;;;;;;5016256;28;20041;-64
2022/02/06 07:31:46;;;;;;;3.87;1.30;;;;;;;;;;5014478;28;20063;-64
2022/02/06 07:34:11;;;;;;;4.13;1.60;;;;;;;;;;5015856;28;20029;-64
2022/02/06 07:36:36;;;;;;;3.37;1.53;;;;;;;;;;5012242;28;20045;-64
2022/02/06 07:39:03;;;;;;;3.30;1.30;;;;;;;;;;5009583;28;20399;-66
2022/02/06 07:41:28;;;;;;;3.67;1.40;;;;;;;;;;5012501;28;20105;-66
2022/02/06 07:43:53;;;;;;;4.10;1.50;;;;;;;;;;5010582;28;20033;-67
2022/02/06 07:46:23;;;;;;;4.37;1.70;;;;;;;;;;5016679;28;20034;-67
2022/02/06 07:48:48;;;;;;;4.17;1.57;;;;;;;;;;5013310;28;20103;-67
2022/02/06 07:51:13;;;;;;;3.67;1.70;;;;;;;;;;5015729;28;20063;-66
2022/02/06 07:53:39;;;;;;;4.17;1.63;;;;;;;;;;5011611;28;20034;-66
2022/02/06 07:56:04;;;;;;;3.33;1.50;;;;;;;;;;5014751;28;20175;-67
2022/02/06 07:58:29;;;;;;;2.20;1.13;;;;;;;;;;5005700;28;20044;-66
2022/02/06 08:00:55;;;;;;;2.77;1.20;;;;;;;;;;5019002;28;20182;-64
2022/02/06 08:03:20;;;;;;;2.23;1.10;;;;;;;;;;5024680;28;20437;-66
2022/02/06 08:05:45;;;;;;;4.17;1.90;;;;;;;;;;5025624;28;20072;-66
2022/02/06 08:08:14;;;;;;;3.23;1.10;;;;;;;;;;5019212;28;20514;-67
2022/02/06 08:10:40;;;;;;;3.00;1.40;;;;;;;;;;5017622;28;20064;-67
2022/02/06 08:13:14;;;;;;;3.60;1.40;;;;;;;;;;5019359;28;20052;-67
2022/02/06 08:15:39;;;;;;;3.30;1.37;;;;;;;;;;5018768;28;20061;-65
2022/02/06 08:18:05;;;;;;;4.23;1.50;;;;;;;;;;5018881;28;20049;-65
2022/02/06 08:20:30;;;;;;;3.47;1.70;;;;;;;;;;5018773;28;20560;-65
2022/02/06 08:22:56;;;;;;;4.90;1.30;;;;;;;;;;5016537;28;20160;-65
2022/02/06 08:25:21;;;;;;;3.33;1.67;;;;;;;;;;5018823;28;20116;-65
2022/02/06 08:27:46;;;;;;;4.67;1.73;;;;;;;;;;5018924;28;20021;-65
2022/02/06 08:30:13;;;;;;;2.90;1.40;;;;;;;;;;5018468;28;20075;-65
2022/02/06 08:32:39;;;;;;;3.90;1.63;;;;;;;;;;5018800;28;20390;-64
2022/02/06 08:35:06;;;;;;;3.47;1.43;;;;;;;;;;5008950;28;20029;-64
2022/02/06 08:37:31;;;;;;;5.23;1.80;;;;;;;;;;5018690;28;20290;-64
2022/02/06 08:39:57;;;;;;;4.60;1.30;;;;;;;;;;5017999;28;20082;-64
2022/02/06 08:42:22;;;;;;;3.27;1.27;;;;;;;;;;5018586;28;20030;-65
2022/02/06 08:44:47;;;;;;;3.03;1.30;;;;;;;;;;5016981;28;20120;-65
2022/02/06 08:47:15;;;;;;;3.13;1.20;;;;;;;;;;5011633;28;20419;-64
2022/02/06 08:49:40;;;;;;;2.43;1.00;;;;;;;;;;5017988;28;20032;-65
2022/02/06 08:52:06;;;;;;;2.70;1.27;;;;;;;;;;5018159;28;20013;-65
2022/02/06 08:54:34;;;;;;;4.33;1.77;;;;;;;;;;5018087;28;20021;-65
2022/02/06 08:57:02;;;;;;;3.50;1.43;;;;;;;;;;5017967;28;20022;-64
2022/02/06 08:59:30;;;;;;;2.50;1.10;;;;;;;;;;5013214;28;20048;-64
2022/02/06 09:01:56;;;;;;;2.83;1.23;;;;;;;;;;5012483;28;20048;-64
2022/02/06 09:04:21;;;;;;;4.93;1.40;;;;;;;;;;5024679;28;20299;-64
2022/02/06 09:06:46;;;;;;;3.60;1.27;;;;;;;;;;5015678;28;20037;-64
2022/02/06 09:09:14;;;;;;;3.03;1.33;;;;;;;;;;5015376;28;20399;-64
2022/02/06 09:11:40;;;;;;;5.77;1.10;;;;;;;;;;5015039;28;20022;-65
2022/02/06 09:14:05;;;;;;;4.73;1.50;;;;;;;;;;5016078;28;20409;-64
2022/02/06 09:16:30;;;;;;;2.80;1.30;;;;;;;;;;5018812;28;20033;-64
2022/02/06 09:18:56;;;;;;;3.43;1.40;;;;;;;;;;5018537;28;20446;-65
2022/02/06 09:21:23;;;;;;;2.13;1.10;;;;;;;;;;5018009;28;20332;-65
2022/02/06 09:23:48;;;;;;;4.40;1.10;;;;;;;;;;5012209;28;20486;-65
2022/02/06 09:26:14;;;;;;;3.70;1.07;;;;;;;;;;5003935;28;20103;-65
2022/02/06 09:28:39;;;;;;;4.80;1.30;;;;;;;;;;5014730;28;20088;-65
2022/02/06 09:31:04;;;;;;;2.97;1.30;;;;;;;;;;5009044;28;20041;-65
2022/02/06 09:35:55;;;;;;;2.97;1.20;;;;;;;;;;5004650;28;20057;-65
2022/02/06 09:38:20;;;;;;;3.30;1.27;;;;;;;;;;5013570;28;20113;-65
2022/02/06 09:40:46;;;;;;;1.67;0.90;;;;;;;;;;5017564;28;20029;-65
2022/02/06 09:43:12;;;;;;;2.23;0.90;;;;;;;;;;5018073;28;20017;-65
2022/02/06 09:45:40;;;;;;;2.53;1.00;;;;;;;;;;5018085;28;20105;-65
2022/02/06 09:48:06;;;;;;;2.87;1.10;;;;;;;;;;5013276;28;20061;-65
2022/02/06 09:50:31;;;;;;;4.00;1.43;;;;;;;;;;5008350;28;20025;-65
2022/02/06 09:52:56;;;;;;;2.70;1.03;;;;;;;;;;5009811;28;20049;-65
2022/02/06 09:55:22;;;;;;;5.07;1.40;;;;;;;;;;5012173;28;20030;-65
2022/02/06 10:00:17;;;;;;;2.97;1.13;;;;;;;;;;5014925;28;20084;-65
2022/02/06 10:02:47;;;;;;;2.23;1.00;;;;;;;;;;5007992;28;20025;-65
2022/02/06 10:05:13;;;;;;;2.97;1.10;;;;;;;;;;5005596;28;20021;-65
2022/02/06 10:07:43;;;;;;;4.50;1.43;;;;;;;;;;5013897;28;20053;-65
2022/02/06 10:10:10;;;;;;;3.13;1.20;;;;;;;;;;5012470;28;20367;-65
2022/02/06 10:12:37;;;;;;;2.97;1.07;;;;;;;;;;5020872;28;20585;-65
2022/02/06 10:15:03;;;;;;;1.90;1.07;;;;;;;;;;5021081;28;20025;-65
2022/02/06 10:17:28;;;;;;;4.00;1.30;;;;;;;;;;5021742;28;20021;-65
2022/02/06 10:19:55;;;;;;;3.07;1.30;;;;;;;;;;5016502;28;20026;-65
2022/02/06 10:22:28;;;;;;;2.80;1.30;;;;;;;;;;5015421;28;20030;-65
2022/02/06 10:25:08;;;;;;;3.47;1.33;;;;;;;;;;5020841;28;20387;-65
2022/02/06 10:30:41;;;;;;;5.50;2.60;;;;;;;;;;5016504;28;20045;-65
2022/02/06 10:33:11;;;;;;;3.83;1.37;;;;;;;;;;5013636;28;20040;-65
2022/02/06 10:35:40;;;;;;;4.30;1.57;;;;;;;;;;5013550;28;20037;-65
2022/02/06 10:38:13;;;;;;;3.40;1.47;;;;;;;;;;5008349;28;20096;-65
2022/02/06 10:40:38;;;;;;;4.40;1.37;;;;;;;;;;5016623;28;20025;-65
2022/02/06 10:43:08;;;;;;;2.13;1.20;;;;;;;;;;5005051;28;20030;-65
2022/02/06 10:45:37;;;;;;;3.10;1.40;;;;;;;;;;5017612;28;20030;-66
2022/02/06 10:48:03;;;;;;;1.87;0.93;;;;;;;;;;5003835;28;20051;-65
2022/02/06 10:50:30;;;;;;;3.60;1.33;;;;;;;;;;5001550;28;20248;-65
2022/02/06 10:53:05;;;;;;;3.80;1.10;;;;;;;;;;5010725;28;20022;-65
2022/02/06 10:55:30;;;;;;;4.10;1.20;;;;;;;;;;5011086;28;20109;-65
2022/02/06 10:57:57;;;;;;;2.50;1.10;;;;;;;;;;5015815;28;20096;-65
2022/02/06 11:00:26;;;;;;;2.97;1.63;;;;;;;;;;5004361;28;20025;-65
2022/02/06 11:03:09;;;;;;;2.27;1.07;;;;;;;;;;5013385;28;20278;-65
2022/02/06 11:05:49;;;;;;;3.40;1.03;;;;;;;;;;5012677;28;20036;-65
2022/02/06 11:08:22;;;;;;;2.13;1.13;;;;;;;;;;5004667;28;20187;-65
2022/02/06 11:10:53;;;;;;;3.37;1.43;;;;;;;;;;5007424;28;20052;-65
2022/02/06 11:13:18;;;;;;;1.90;1.10;;;;;;;;;;5016828;28;20018;-65
2022/02/06 11:15:46;;;;;;;2.23;0.97;;;;;;;;;;5014594;28;20219;-65
2022/02/06 11:18:19;;;;;;;3.30;1.40;;;;;;;;;;5013196;28;20075;-65
2022/02/06 11:20:53;;;;;;;2.50;1.23;;;;;;;;;;5011905;28;20508;-65
2022/02/06 11:23:19;;;;;;;2.10;1.27;;;;;;;;;;5019918;28;20057;-65
2022/02/06 11:25:45;;;;;;;1.77;0.80;;;;;;;;;;5014589;28;20049;-65
2022/02/06 11:28:11;;;;;;;5.03;1.47;;;;;;;;;;5011689;28;20489;-65
2022/02/06 11:30:38;;;;;;;2.67;1.50;;;;;;;;;;5015463;28;20027;-65
2022/02/06 11:33:05;;;;;;;2.60;1.10;;;;;;;;;;5020361;28;20013;-65
2022/02/06 11:35:31;;;;;;;2.43;1.10;;;;;;;;;;5017432;28;20093;-65
2022/02/06 11:43:54;;;;;;;2.20;1.10;;;;;;;;;;5003096;28;20048;-65
2022/02/06 11:46:38;;;;;;;1.60;0.93;;;;;;;;;;5006982;28;20502;-65
2022/02/06 11:49:08;;;;;;;2.23;1.00;;;;;;;;;;5002107;28;20375;-65
2022/02/06 11:51:34;;;;;;;2.70;1.30;;;;;;;;;;5014063;28;20018;-65
2022/02/06 11:54:19;;;;;;;2.10;1.00;;;;;;;;;;5013258;28;20116;-65
2022/02/06 11:56:45;;;;;;;2.43;1.00;;;;;;;;;;5006846;28;20056;-65
2022/02/06 11:59:14;;;;;;;1.03;0.73;;;;;;;;;;5004877;28;20487;-65
2022/02/06 12:01:41;;;;;;;2.03;0.87;;;;;;;;;;5014819;28;20028;-66
2022/02/06 12:04:19;;;;;;;1.80;1.00;;;;;;;;;;4999841;28;20482;-65
2022/02/06 12:06:47;;;;;;;1.63;0.60;;;;;;;;;;5016559;28;20072;-65
2022/02/06 12:09:26;;;;;;;1.73;0.73;;;;;;;;;;5014615;28;20048;-65
2022/02/06 12:12:04;;;;;;;1.80;0.77;;;;;;;;;;5001066;28;20411;-65
2022/02/06 12:14:33;;;;;;;1.60;0.87;;;;;;;;;;5012357;28;20308;-65
2022/02/06 12:17:08;;;;;;;1.07;0.67;;;;;;;;;;4999250;28;20029;-65
2022/02/06 12:19:33;;;;;;;0.57;0.50;;;;;;;;;;5013347;28;20068;-65
2022/02/06 12:22:17;;;;;;;0.70;0.50;;;;;;;;;;5005350;28;20489;-65
2022/02/06 12:24:42;;;;;;;3.27;1.00;;;;;;;;;;5003747;28;20029;-65
2022/02/06 12:27:24;;;;;;;0.73;0.60;;;;;;;;;;5015908;28;20059;-65
2022/02/06 12:29:52;;;;;;;1.27;0.70;;;;;;;;;;5016142;28;20091;-65
2022/02/06 12:32:31;;;;;;;0.50;0.50;;;;;;;;;;5014894;28;20034;-66
2022/02/06 12:37:40;;;;;;;0.50;0.43;;;;;;;;;;5004324;28;20040;-65
2022/02/06 12:40:07;;;;;;;0.63;0.40;;;;;;;;;;5000731;28;20034;-65
2022/02/06 12:42:34;;;;;;;0.60;0.60;;;;;;;;;;5016286;28;20029;-66
2022/02/06 12:45:00;;;;;;;0.40;0.40;;;;;;;;;;5006996;28;20033;-65
2022/02/06 12:47:26;;;;;;;0.30;0.30;;;;;;;;;;5009351;28;20025;-66
2022/02/06 12:49:52;;;;;;;0.70;0.70;;;;;;;;;;5006755;28;20261;-66
2022/02/06 12:52:17;;;;;;;1.67;0.60;;;;;;;;;;5009021;28;20029;-65
2022/02/06 12:54:43;;;;;;;0.87;0.60;;;;;;;;;;5015267;28;20413;-66
2022/02/06 12:57:09;;;;;;;0.50;0.50;;;;;;;;;;5005833;28;20033;-66
2022/02/06 12:59:36;;;;;;;0.70;0.50;;;;;;;;;;5014727;28;21086;-66
2022/02/06 13:02:02;;;;;;;0.93;0.67;;;;;;;;;;5012721;28;20029;-66
2022/02/06 13:04:30;;;;;;;0.33;0.33;;;;;;;;;;5013722;28;20557;-66
2022/02/06 13:07:01;;;;;;;1.97;0.60;;;;;;;;;;5010709;28;20044;-66
2022/02/06 13:09:35;;;;;;;2.00;0.70;;;;;;;;;;5005549;28;20044;-66
2022/02/06 13:15:32;;;;;;;1.30;0.97;;;;;;;;;;5003831;28;20051;-66
2022/02/06 13:20:58;;;;;;;1.03;0.70;;;;;;;;;;5012702;28;20033;-66
2022/02/06 13:23:48;;;;;;;0.90;0.60;;;;;;;;;;4999006;28;20041;-66
2022/02/06 13:26:24;;;;;;;0.93;0.50;;;;;;;;;;5011915;28;20184;-66
2022/02/06 13:31:24;;;;;;;1.07;0.70;;;;;;;;;;5013909;28;20254;-66
2022/02/06 13:36:34;;;;;;;1.13;0.70;;;;;;;;;;5004432;28;20469;-66
2022/02/06 13:39:05;;;;;;;1.43;0.83;;;;;;;;;;5003078;28;20036;-66
2022/02/06 13:41:33;;;;;;;1.47;0.70;;;;;;;;;;5013660;28;20065;-66
2022/02/06 13:43:59;;;;;;;1.47;0.90;;;;;;;;;;5001283;28;20179;-66
2022/02/06 13:46:27;;;;;;;1.87;0.80;;;;;;;;;;5013946;28;20208;-66
2022/02/06 13:48:54;;;;;;;2.10;0.70;;;;;;;;;;5019292;28;20034;-66
2022/02/06 13:51:30;;;;;;;1.00;0.70;;;;;;;;;;5009787;28;20021;-66
2022/02/06 13:53:56;;;;;;;1.90;0.70;;;;;;;;;;5010025;28;20151;-66
2022/02/06 13:56:22;;;;;;;1.53;0.70;;;;;;;;;;5019493;28;20207;-66
2022/02/06 13:59:03;;;;;;;2.20;0.90;;;;;;;;;;5008657;28;20088;-66
2022/02/06 14:01:38;;;;;;;1.40;0.73;;;;;;;;;;5018880;28;20267;-66
2022/02/06 14:04:05;;;;;;;1.47;0.60;;;;;;;;;;5006282;28;20470;-66
2022/02/06 14:06:40;;;;;;;1.97;0.60;;;;;;;;;;5018339;28;20037;-66
2022/02/06 14:09:10;;;;;;;3.63;0.70;;;;;;;;;;5018029;28;20136;-66
2022/02/06 14:11:35;;;;;;;1.53;0.80;;;;;;;;;;5019254;28;20426;-66
2022/02/06 14:14:16;;;;;;;0.90;0.60;;;;;;;;;;5010287;28;20398;-66
2022/02/06 14:16:45;;;;;;;2.70;0.70;;;;;;;;;;5017492;28;20102;-67
2022/02/06 14:19:11;;;;;;;1.57;0.77;;;;;;;;;;5001100;28;20439;-66
2022/02/06 14:21:47;;;;;;;4.00;0.60;;;;;;;;;;5010372;28;20034;-66
2022/02/06 14:24:13;;;;;;;1.10;0.53;;;;;;;;;;5017765;28;20048;-67
2022/02/06 14:26:58;;;;;;;2.13;0.90;;;;;;;;;;5014256;28;20034;-66
2022/02/06 14:29:24;;;;;;;1.80;0.77;;;;;;;;;;5008119;28;20114;-66
2022/02/06 14:31:49;;;;;;;1.70;0.60;;;;;;;;;;5009009;28;20033;-67
2022/02/06 14:34:18;;;;;;;2.23;0.60;;;;;;;;;;5018963;28;20190;-67
2022/02/06 14:37:02;;;;;;;2.97;0.97;;;;;;;;;;5007974;28;20076;-67
2022/02/06 14:39:33;;;;;;;4.33;0.87;;;;;;;;;;5018454;28;20200;-66
2022/02/06 14:42:09;;;;;;;1.88;0.70;;;;;;;;;;5017825;28;20033;-67
2022/02/06 14:44:34;;;;;;;1.57;0.80;;;;;;;;;;5015546;28;20341;-66
2022/02/06 14:47:00;;;;;;;1.50;0.73;;;;;;;;;;5009111;28;20052;-67
2022/02/06 14:49:28;;;;;;;1.77;0.80;;;;;;;;;;5016403;28;20106;-67
2022/02/06 14:51:54;;;;;;;3.33;0.90;;;;;;;;;;5005451;28;20037;-67
2022/02/06 14:54:27;;;;;;;5.43;1.10;;;;;;;;;;5008061;28;20104;-67
2022/02/06 14:56:53;;;;;;;1.70;0.80;;;;;;;;;;5009077;28;20031;-67
2022/02/06 14:59:18;;;;;;;2.20;0.97;;;;;;;;;;5007989;28;20029;-67
2022/02/06 15:01:44;;;;;;;2.80;0.90;;;;;;;;;;5013899;28;20227;-66
2022/02/06 15:04:13;;;;;;;1.57;0.60;;;;;;;;;;5015694;28;20300;-67
2022/02/06 15:06:38;;;;;;;1.53;0.80;;;;;;;;;;5016356;28;20316;-67
2022/02/06 15:09:04;;;;;;;6.50;0.80;;;;;;;;;;5013376;28;20056;-67
2022/02/06 15:11:29;;;;;;;5.63;1.30;;;;;;;;;;5005215;28;20430;-67
2022/02/06 15:13:54;;;;;;;4.40;0.90;;;;;;;;;;5012019;28;20059;-67
2022/02/06 15:16:25;;;;;;;2.80;1.17;;;;;;;;;;5006654;28;20266;-67
2022/02/06 15:21:34;;;;;;;5.37;1.00;;;;;;;;;;5008769;28;20061;-67
2022/02/06 15:24:00;;;;;;;3.33;0.90;;;;;;;;;;5012425;28;20290;-67
2022/02/06 15:26:25;;;;;;;4.00;1.00;;;;;;;;;;5015843;28;20044;-67
2022/02/06 15:28:50;;;;;;;6.93;1.00;;;;;;;;;;5005475;28;20465;-67
2022/02/06 15:31:16;;;;;;;1.90;0.90;;;;;;;;;;5006910;28;20064;-67
2022/02/06 15:33:41;;;;;;;1.87;0.70;;;;;;;;;;5017015;28;20063;-67
2022/02/06 15:36:08;;;;;;;3.43;1.10;;;;;;;;;;5015306;28;20061;-67
2022/02/06 15:38:35;;;;;;;5.70;0.80;;;;;;;;;;5017671;28;20036;-67
2022/02/06 15:41:01;;;;;;;2.73;0.73;;;;;;;;;;5010156;28;20044;-67
2022/02/06 15:43:26;;;;;;;2.57;0.90;;;;;;;;;;5011570;28;20041;-67
2022/02/06 15:45:52;;;;;;;6.57;1.07;;;;;;;;;;5013962;28;20098;-67
2022/02/06 15:48:17;;;;;;;4.37;1.20;;;;;;;;;;5015298;28;20158;-67
2022/02/06 15:50:42;;;;;;;4.60;1.17;;;;;;;;;;5012637;28;20133;-67
2022/02/06 15:53:08;;;;;;;5.73;0.97;;;;;;;;;;5005870;28;20060;-67
2022/02/06 15:55:33;;;;;;;8.90;1.00;;;;;;;;;;5000779;28;20109;-67
2022/02/06 15:57:58;;;;;;;3.70;0.90;;;;;;;;;;5010866;28;20445;-67
2022/02/06 16:00:24;;;;;;;7.00;1.47;;;;;;;;;;5004997;28;20501;-67
2022/02/06 16:02:49;;;;;;;2.03;0.80;;;;;;;;;;5006265;28;20034;-70
2022/02/06 16:05:14;;;;;;;2.67;1.00;;;;;;;;;;5010485;28;20104;-67
2022/02/06 16:07:40;;;;;;;5.00;1.90;;;;;;;;;;5007618;28;20664;-67
2022/02/06 16:10:06;;;;;;;3.03;0.93;;;;;;;;;;4998972;28;20262;-67
2022/02/06 16:12:32;;;;;;;5.67;1.73;;;;;;;;;;5004937;28;20216;-67
2022/02/06 16:14:57;;;;;;;2.57;0.93;;;;;;;;;;5006264;28;20021;-67
2022/02/06 16:17:22;;;;;;;3.37;1.10;;;;;;;;;;5003590;28;20025;-67
2022/02/06 16:19:47;;;;;;;5.83;1.00;;;;;;;;;;5008205;28;20033;-67
2022/02/06 16:22:13;;;;;;;4.77;1.30;;;;;;;;;;5007291;28;20076;-67
2022/02/06 16:24:40;;;;;;;3.97;1.30;;;;;;;;;;5004836;28;20136;-67
2022/02/06 16:27:08;;;;;;;7.10;1.10;;;;;;;;;;5011381;28;20269;-67
2022/02/06 16:29:33;;;;;;;5.27;1.43;;;;;;;;;;5006879;28;20386;-67
2022/02/06 16:31:59;;;;;;;2.80;1.00;;;;;;;;;;5004519;28;20653;-67
2022/02/06 16:34:24;;;;;;;4.73;1.00;;;;;;;;;;5004776;28;20029;-67
2022/02/06 16:36:50;;;;;;;2.97;1.10;;;;;;;;;;5013513;28;20029;-67
2022/02/06 16:39:17;;;;;;;2.57;0.90;;;;;;;;;;5009896;28;20064;-67
2022/02/06 16:41:43;;;;;;;5.60;0.90;;;;;;;;;;5008121;28;20515;-67
2022/02/06 16:44:09;;;;;;;5.47;0.80;;;;;;;;;;5002963;28;20143;-67
2022/02/06 16:46:35;;;;;;;2.77;1.23;;;;;;;;;;5010008;28;20037;-67
2022/02/06 16:49:00;;;;;;;2.37;0.73;;;;;;;;;;5003084;28;20038;-66
2022/02/06 16:51:26;;;;;;;6.17;1.00;;;;;;;;;;5008653;28;20753;-66
2022/02/06 16:53:51;;;;;;;9.23;1.60;;;;;;;;;;5007070;28;20045;-65
2022/02/06 16:56:21;;;;;;;4.90;1.07;;;;;;;;;;5006649;28;20018;-66
2022/02/06 16:58:47;;;;;;;1.57;0.70;;;;;;;;;;5012839;28;20545;-66
2022/02/06 17:01:12;;;;;;;2.47;0.93;;;;;;;;;;5007149;28;20282;-66
2022/02/06 17:03:41;;;;;;;3.77;0.90;;;;;;;;;;4999583;28;20033;-66
2022/02/06 17:06:06;;;;;;;3.53;0.90;;;;;;;;;;4998572;28;20188;-66
2022/02/06 17:08:35;;;;;;;2.33;0.77;;;;;;;;;;5005523;28;20052;-66
2022/02/06 17:11:01;;;;;;;1.70;0.70;;;;;;;;;;5011497;28;20837;-66
2022/02/06 17:13:27;;;;;;;0.87;0.60;;;;;;;;;;5007098;28;20033;-66
2022/02/06 17:15:52;;;;;;;1.50;0.70;;;;;;;;;;5011575;28;20498;-66
2022/02/06 17:18:18;;;;;;;2.10;0.90;;;;;;;;;;5006962;28;20341;-66
2022/02/06 17:20:43;;;;;;;2.00;0.70;;;;;;;;;;5007250;28;20034;-66
2022/02/06 17:23:10;;;;;;;1.87;0.70;;;;;;;;;;5014320;28;20036;-66